SBSTSBFL

Guest
Details From SBST - BASE AEREA DE SANTOS
To SBFL - Hercillo Luz
Flight Number -
Tags decoded
Created
Modified
Stats Distance 279 nm / 516 km
Max Altitude 0 ft / 0 m
Waypoints 4
Social Downloads 0
Likes 0
Share VATSIM

Download

Looking for another format? Having issues loading an existing format? Contact us
Advertisement - Login to hide

Notes

Requested: SBST COBRA NX NVG ONIX SBFL Unmatched points: ONIX

Route

SBST NX NVG SBFL

ID Type Via Altitude Latitude Longitude Leg Dist Tot Dist Heading (true) Name
O SBST APT - 0 ft / 0 m -23.92520˚ -46.28750˚ - 0 nm - BASE AEREA DE SANTOS
NX NDB - 0 ft / 0 m -25.49383˚ -48.32883˚ 145 nm 145 nm 229° / 230° DOMEL NDB
NVG NDB - 0 ft / 0 m -26.87567˚ -48.65283˚ 84 nm 230 nm 192° / 192° NAVEGANTES NDB
O SBFL APT - 0 ft / 0 m -27.67049˚ -48.54718˚ 48 nm 278 nm 173° / 173° Hercillo Luz

Altitude Profile

Advertisement - Login to hide

Weather


0- 5 10 15 20 25 30 35+ Temperature / ° C

Clouds and Precipitation
Forecast for 2017-12-13 12:00 UTC. Updated 19 minutes ago

Ground ~20,000 ft ~40,000 ft Winds

SBST

Details ICAO SBST (SSZ)
Name BASE AEREA DE SANTOS
Region Brazil
Timezone America/Sao_Paulo (UTC-2.0)
Stats Elevation 10 ft / 3 m (AMSL)
Location -23.925204° -46.287498°
Runways 1
Magnetic Variation 21.405° W

METAR

SBST 130900Z 00000KT 9999 BKN040 21/20 Q1017

Decode

TAF

Not found

Departure Runways

ID Width Length Bearing (true) Bearing (mag) Surface Threshold Offset Overrun Length
17 148 ft / 45 m 4,574 ft / 1,394 m 148.78° 170.18° Asphalt 0 ft / 0 m 0 ft / 0 m
35 148 ft / 45 m 4,574 ft / 1,394 m 328.78° 350.18° Asphalt 0 ft / 0 m 0 ft / 0 m

SBFL

Details ICAO SBFL (FLN)
Name Hercillo Luz
Region Brazil
Timezone America/Sao_Paulo (UTC-2.0)
Stats Elevation 19 ft / 6 m (AMSL)
Location -27.670487° -48.547180°
Runways 2
Magnetic Variation 19.320° W

METAR

SBFL 130900Z 00000KT 9999 FEW025 BKN045 21/17 Q1018

Decode

TAF

TAF SBFL 130030Z 1306/1406 11011KT 9999 FEW040 TN20/1308Z TX27/1317Z BECMG 1310/1312 34005KT 9999 SCT020 BECMG 1316/1318 01017KT SCT030 BECMG 1320/1322 01012KT SCT020 RMK PEB

Decode

Destination Runways

ID Width Length Bearing (true) Bearing (mag) Surface Threshold Offset Overrun Length
03 148 ft / 45 m 4,939 ft / 1,505 m 11.55° 30.87° Concrete 0 ft / 0 m 0 ft / 0 m
14 148 ft / 45 m 7,543 ft / 2,299 m 121.30° 140.62° Asphalt 720 ft / 219 m 0 ft / 0 m
21 148 ft / 45 m 4,939 ft / 1,505 m 191.55° 210.87° Concrete 0 ft / 0 m 0 ft / 0 m
32 148 ft / 45 m 7,543 ft / 2,299 m 301.29° 320.61° Asphalt 0 ft / 0 m 200 ft / 61 m

Approach Navaids

Runway Type Ident Frequency Range Bearing (true) Bearing (mag) Slope Elevation
14 Localiser IFL 110.30 MHz 18 nm / 33 km 121.67° 140.99° - 19 ft / 6 m (AMSL)
14 Glidescope IFL 110.30 MHz 10 nm / 19 km 121.29° 140.61° 3.00° 19 ft / 6 m (AMSL)

Popular Alternatives